Time;durP1;ratioP1;P1;durP2;ratioP2;P2;SDS_P1;SDS_P2;PMS_P1;PMS_P2;Temp;Humidity;BMP_temperature;BMP_pressure;BME280_temperature;BME280_humidity;BME280_pressure;Samples;Min_cycle;Max_cycle;Signal;HPM_P1;HPM_P2
2023/05/20 00:01:55;;;;;;;9.07;4.03;;;13.50;99.90;;;;;;5054805;28;20033;-72
2023/05/20 00:04:21;;;;;;;6.40;3.47;;;13.40;99.90;;;;;;5058459;28;20028;-72
2023/05/20 00:06:46;;;;;;;8.15;3.75;;;13.50;99.90;;;;;;5056395;28;20086;-72
2023/05/20 00:09:12;;;;;;;7.63;3.85;;;13.60;99.90;;;;;;5059206;28;20071;-73
2023/05/20 00:11:38;;;;;;;5.85;3.53;;;13.60;99.90;;;;;;5061359;28;20418;-72
2023/05/20 00:14:03;;;;;;;5.00;3.38;;;13.80;99.90;;;;;;5054134;28;20432;-72
2023/05/20 00:16:29;;;;;;;5.25;3.45;;;13.80;99.90;;;;;;5058869;28;20514;-72
2023/05/20 00:18:56;;;;;;;6.22;4.00;;;13.80;99.90;;;;;;5050101;28;20036;-72
2023/05/20 00:21:21;;;;;;;7.55;3.85;;;13.90;99.90;;;;;;5051224;28;20466;-72
2023/05/20 00:23:47;;;;;;;5.65;3.13;;;13.90;99.90;;;;;;5059567;28;20029;-72
2023/05/20 00:26:13;;;;;;;5.38;3.15;;;13.90;99.90;;;;;;5054309;28;20112;-72
2023/05/20 00:28:38;;;;;;;6.10;3.92;;;13.90;99.90;;;;;;5051285;28;20044;-72
2023/05/20 00:31:04;;;;;;;7.22;4.00;;;13.90;99.90;;;;;;5054078;28;20035;-73
2023/05/20 00:33:30;;;;;;;6.63;4.70;;;13.90;99.90;;;;;;5059423;28;20033;-73
2023/05/20 00:35:55;;;;;;;7.35;4.22;;;13.90;99.90;;;;;;5053472;28;20102;-73
2023/05/20 00:38:21;;;;;;;7.97;4.60;;;13.90;99.90;;;;;;5050244;28;20104;-73
2023/05/20 00:40:47;;;;;;;8.60;4.43;;;14.00;99.90;;;;;;5061421;28;20068;-73
2023/05/20 00:43:12;;;;;;;7.53;4.15;;;14.10;99.90;;;;;;5058519;28;20487;-73
2023/05/20 00:45:38;;;;;;;6.78;3.90;;;13.90;99.90;;;;;;5056703;28;20028;-72
2023/05/20 00:48:05;;;;;;;5.68;3.47;;;13.90;99.90;;;;;;5049196;28;20056;-73
2023/05/20 00:50:31;;;;;;;9.65;4.43;;;13.70;99.90;;;;;;5048572;28;20033;-73
2023/05/20 00:52:57;;;;;;;6.55;3.88;;;13.70;99.90;;;;;;5059191;28;20081;-73
2023/05/20 00:55:24;;;;;;;8.73;4.68;;;13.70;99.90;;;;;;5052040;28;20059;-73
2023/05/20 00:57:51;;;;;;;6.10;3.42;;;13.70;99.90;;;;;;5053077;28;20033;-73
2023/05/20 01:00:16;;;;;;;6.22;3.85;;;13.80;99.90;;;;;;5047709;28;20455;-73
2023/05/20 01:02:42;;;;;;;6.65;3.67;;;13.90;99.90;;;;;;5057516;28;20039;-73
2023/05/20 01:05:08;;;;;;;6.82;3.70;;;13.90;99.90;;;;;;5054734;28;20041;-73
2023/05/20 01:07:33;;;;;;;6.03;3.53;;;13.90;99.90;;;;;;5050595;28;20131;-73
2023/05/20 01:10:00;;;;;;;7.15;3.80;;;13.80;99.90;;;;;;5052448;28;20036;-73
2023/05/20 01:12:30;;;;;;;5.80;3.75;;;13.70;99.90;;;;;;5051439;28;20572;-72
2023/05/20 01:15:09;;;;;;;6.90;4.22;;;13.80;99.90;;;;;;5058176;28;20039;-72
2023/05/20 01:17:38;;;;;;;6.68;3.75;;;13.90;99.90;;;;;;5052780;28;20521;-73
2023/05/20 01:20:11;;;;;;;8.50;3.83;;;13.80;99.90;;;;;;5054718;28;20168;-73
2023/05/20 01:22:45;;;;;;;8.57;3.90;;;13.60;99.90;;;;;;5060026;28;20108;-73
2023/05/20 01:25:11;;;;;;;;;;;13.80;99.90;;;;;;5055531;28;20025;-73
2023/05/20 01:27:36;;;;;;;6.60;4.65;;;13.80;99.90;;;;;;5052197;28;19920;-72
2023/05/20 01:30:02;;;;;;;9.27;4.47;;;13.80;99.90;;;;;;5050798;28;20029;-73
2023/05/20 01:32:36;;;;;;;7.07;4.30;;;13.70;99.90;;;;;;5055815;28;20055;-73
2023/05/20 01:35:04;;;;;;;5.47;3.67;;;13.70;99.90;;;;;;5051299;28;20041;-72
2023/05/20 01:37:31;;;;;;;5.93;3.70;;;13.70;99.90;;;;;;5054055;28;20055;-72
2023/05/20 01:39:57;;;;;;;5.45;3.35;;;13.50;99.90;;;;;;5054353;28;20029;-72
2023/05/20 01:42:25;;;;;;;8.00;3.97;;;13.60;99.90;;;;;;5056885;28;20143;-73
2023/05/20 01:44:50;;;;;;;6.28;3.80;;;13.60;99.90;;;;;;5052645;28;20108;-73
2023/05/20 01:47:16;;;;;;;7.50;3.83;;;13.60;99.90;;;;;;5057199;28;20120;-73
2023/05/20 01:49:42;;;;;;;7.60;3.45;;;13.60;99.90;;;;;;5056569;28;20054;-72
2023/05/20 01:52:07;;;;;;;5.32;2.90;;;13.50;99.90;;;;;;5058663;28;20028;-72
2023/05/20 01:54:33;;;;;;;5.85;3.58;;;13.50;99.90;;;;;;5065560;28;20040;-73
2023/05/20 01:56:59;;;;;;;7.13;3.35;;;13.60;99.90;;;;;;5059976;28;20437;-73
2023/05/20 01:59:24;;;;;;;6.63;3.70;;;13.60;99.90;;;;;;5056217;28;20433;-73
2023/05/20 02:01:50;;;;;;;5.88;3.15;;;13.70;99.90;;;;;;5061587;28;21236;-72
2023/05/20 02:04:17;;;;;;;6.03;3.70;;;13.70;99.90;;;;;;5061553;28;20025;-73
2023/05/20 02:06:43;;;;;;;6.22;3.45;;;13.70;99.90;;;;;;5054087;28;20040;-73
2023/05/20 02:09:09;;;;;;;5.35;3.28;;;13.80;99.90;;;;;;5064103;28;20028;-72
2023/05/20 02:11:35;;;;;;;8.27;4.05;;;13.80;99.90;;;;;;5059142;28;20079;-73
2023/05/20 02:14:00;;;;;;;6.28;3.80;;;13.80;99.90;;;;;;5051306;28;20034;-73
2023/05/20 02:16:26;;;;;;;6.45;3.78;;;13.70;99.90;;;;;;5063769;28;20476;-73
2023/05/20 02:18:52;;;;;;;6.55;3.85;;;13.70;99.90;;;;;;5060803;28;20054;-73
2023/05/20 02:21:18;;;;;;;5.47;3.92;;;13.70;99.90;;;;;;5062600;28;20356;-73
2023/05/20 02:23:44;;;;;;;5.63;3.20;;;13.60;99.90;;;;;;5061090;28;20033;-72
2023/05/20 02:26:09;;;;;;;4.72;2.90;;;13.50;99.90;;;;;;5052809;28;20033;-73
2023/05/20 02:28:39;;;;;;;7.53;3.30;;;13.40;99.90;;;;;;5058946;28;20043;-72
2023/05/20 02:31:05;;;;;;;6.55;2.95;;;13.40;99.90;;;;;;5054090;28;20064;-73
2023/05/20 02:33:30;;;;;;;5.63;3.40;;;13.50;99.90;;;;;;5052948;28;20514;-73
2023/05/20 02:35:56;;;;;;;6.70;3.28;;;13.50;99.90;;;;;;5055534;28;20113;-73
2023/05/20 02:38:22;;;;;;;9.20;3.72;;;13.40;99.90;;;;;;5051061;28;20100;-73
2023/05/20 02:40:47;;;;;;;8.98;3.63;;;13.50;99.90;;;;;;5056716;28;20104;-73
2023/05/20 02:43:13;;;;;;;5.47;3.13;;;13.50;99.90;;;;;;5057056;28;20108;-73
2023/05/20 02:45:39;;;;;;;5.03;2.83;;;13.50;99.90;;;;;;5056942;28;20283;-73
2023/05/20 02:48:05;;;;;;;5.80;2.90;;;13.50;99.90;;;;;;5062137;28;20028;-72
2023/05/20 02:50:31;;;;;;;4.47;2.90;;;13.50;99.90;;;;;;5056851;28;20033;-72
2023/05/20 02:52:56;;;;;;;5.63;3.45;;;13.60;99.90;;;;;;5051750;28;20029;-73
2023/05/20 02:55:22;;;;;;;6.47;3.00;;;13.70;99.90;;;;;;5055820;28;20052;-73
2023/05/20 02:57:48;;;;;;;6.20;3.38;;;13.70;99.90;;;;;;5056017;28;20427;-73
2023/05/20 03:00:15;;;;;;;5.53;2.97;;;13.70;99.90;;;;;;5053294;28;20057;-74
2023/05/20 03:02:41;;;;;;;6.07;3.03;;;13.80;99.90;;;;;;5055140;28;20021;-74
2023/05/20 03:05:06;;;;;;;5.97;3.17;;;13.80;99.90;;;;;;5048131;28;20025;-74
2023/05/20 03:07:35;;;;;;;5.85;2.85;;;13.70;99.90;;;;;;5054259;28;20120;-74
2023/05/20 03:10:01;;;;;;;5.63;3.00;;;13.70;99.90;;;;;;5050721;28;20040;-74
2023/05/20 03:12:27;;;;;;;7.00;3.13;;;13.70;99.90;;;;;;5053505;28;20024;-74
2023/05/20 03:14:54;;;;;;;5.10;2.70;;;13.50;99.90;;;;;;5055253;28;20524;-74
2023/05/20 03:17:22;;;;;;;5.75;2.72;;;13.40;99.90;;;;;;5050615;28;20028;-74
2023/05/20 03:19:48;;;;;;;4.82;2.85;;;13.50;99.90;;;;;;5049422;28;20029;-74
2023/05/20 03:22:14;;;;;;;5.70;3.38;;;13.50;99.90;;;;;;5049097;28;20094;-74
2023/05/20 03:24:41;;;;;;;5.60;3.40;;;13.50;99.90;;;;;;5046548;28;20103;-75
2023/05/20 03:27:06;;;;;;;5.47;3.10;;;13.50;99.90;;;;;;5047469;28;20024;-74
2023/05/20 03:29:32;;;;;;;6.28;2.92;;;13.50;99.90;;;;;;5044191;28;20041;-74
2023/05/20 03:31:58;;;;;;;5.65;3.55;;;13.50;99.90;;;;;;5049542;28;20025;-74
2023/05/20 03:34:26;;;;;;;8.85;4.03;;;13.70;99.90;;;;;;5047171;28;20555;-74
2023/05/20 03:36:52;;;;;;;6.65;3.08;;;13.70;99.90;;;;;;5051673;28;20056;-74
2023/05/20 03:39:18;;;;;;;4.85;2.80;;;13.60;99.90;;;;;;5052926;28;20037;-74
2023/05/20 03:41:44;;;;;;;5.07;3.25;;;13.50;99.90;;;;;;5055905;28;20033;-74
2023/05/20 03:44:09;;;;;;;6.72;2.75;;;13.70;99.90;;;;;;5049359;28;20036;-74
2023/05/20 03:46:35;;;;;;;4.72;2.83;;;13.90;99.90;;;;;;5052185;28;20029;-74
2023/05/20 03:49:01;;;;;;;5.18;3.05;;;13.90;99.90;;;;;;5050954;28;20048;-74
2023/05/20 03:51:27;;;;;;;6.95;2.97;;;13.80;99.90;;;;;;5048322;28;20032;-74
2023/05/20 03:53:52;;;;;;;5.57;3.00;;;13.70;99.90;;;;;;5047657;28;20036;-74
2023/05/20 03:56:18;;;;;;;5.10;3.08;;;13.80;99.90;;;;;;5050675;28;20061;-74
2023/05/20 03:58:44;;;;;;;5.53;3.20;;;13.80;99.90;;;;;;5049438;28;20025;-74
2023/05/20 04:01:12;;;;;;;5.25;2.70;;;13.70;99.90;;;;;;5045253;28;20028;-74
2023/05/20 04:03:37;;;;;;;7.60;3.40;;;13.50;99.90;;;;;;5043309;28;20372;-74
2023/05/20 04:06:03;;;;;;;5.95;3.67;;;13.50;99.90;;;;;;5048357;28;20040;-75
2023/05/20 04:08:29;;;;;;;5.15;2.92;;;13.50;99.90;;;;;;5049831;28;20112;-74
2023/05/20 04:10:56;;;;;;;6.22;3.13;;;13.30;99.90;;;;;;5051246;28;20086;-74
2023/05/20 04:13:24;;;;;;;6.95;3.22;;;13.20;99.90;;;;;;5049046;28;20401;-75
2023/05/20 04:15:51;;;;;;;5.60;3.08;;;13.30;99.90;;;;;;5052832;28;20029;-74
2023/05/20 04:18:17;;;;;;;4.50;2.90;;;13.30;99.90;;;;;;5044634;28;20028;-74
2023/05/20 04:20:43;;;;;;;4.20;2.53;;;13.40;99.90;;;;;;5053945;28;20504;-74
2023/05/20 04:23:09;;;;;;;5.93;3.65;;;13.60;99.90;;;;;;5050394;28;20068;-75
2023/05/20 04:25:35;;;;;;;7.53;4.22;;;13.70;99.90;;;;;;5043767;28;20053;-75
2023/05/20 04:28:01;;;;;;;5.63;3.00;;;13.80;99.90;;;;;;5051224;28;20028;-74
2023/05/20 04:30:27;;;;;;;6.38;2.38;;;13.80;99.90;;;;;;5041724;28;20025;-75
2023/05/20 04:32:53;;;;;;;4.75;2.70;;;13.80;99.90;;;;;;5047882;28;20032;-75
2023/05/20 04:35:19;;;;;;;5.30;3.00;;;13.70;99.90;;;;;;5054246;28;20068;-74
2023/05/20 04:37:47;;;;;;;5.03;2.83;;;13.70;99.90;;;;;;5046860;28;20059;-75
2023/05/20 04:40:13;;;;;;;6.05;3.40;;;13.70;99.90;;;;;;5045652;28;20036;-74
2023/05/20 04:42:39;;;;;;;4.80;2.70;;;13.70;99.90;;;;;;5048410;28;20532;-74
2023/05/20 04:45:07;;;;;;;5.30;2.78;;;13.60;99.90;;;;;;5047269;28;20031;-74
2023/05/20 04:47:37;;;;;;;5.20;2.90;;;13.40;99.90;;;;;;5049424;28;20035;-74
2023/05/20 04:50:09;;;;;;;4.97;3.05;;;13.40;99.90;;;;;;5049201;28;20028;-74
2023/05/20 04:52:38;;;;;;;7.40;3.47;;;13.50;99.90;;;;;;5047196;28;20401;-75
2023/05/20 04:55:07;;;;;;;6.75;3.35;;;13.50;99.90;;;;;;5046407;28;20041;-75
2023/05/20 04:57:34;;;;;;;5.65;3.30;;;13.50;99.90;;;;;;5052479;28;20033;-75
2023/05/20 05:00:00;;;;;;;6.20;3.10;;;13.60;99.90;;;;;;5044975;28;20812;-74
2023/05/20 05:02:26;;;;;;;6.80;3.90;;;13.60;99.90;;;;;;5054997;28;20036;-74
2023/05/20 05:04:52;;;;;;;7.43;3.63;;;13.70;99.90;;;;;;5050827;28;20036;-74
2023/05/20 05:07:18;;;;;;;10.98;2.90;;;13.60;99.90;;;;;;5047038;28;20027;-74
2023/05/20 05:09:43;;;;;;;5.90;3.05;;;13.70;99.90;;;;;;5048830;28;20021;-74
2023/05/20 05:12:09;;;;;;;4.38;2.88;;;13.70;99.90;;;;;;5048472;28;20057;-75
2023/05/20 05:14:35;;;;;;;6.03;3.15;;;13.70;99.90;;;;;;5055235;28;20040;-74
2023/05/20 05:17:00;;;;;;;5.70;3.05;;;13.70;99.90;;;;;;5056246;28;20115;-74
2023/05/20 05:19:26;;;;;;;8.38;2.85;;;13.70;99.90;;;;;;5057164;28;20455;-75
2023/05/20 05:21:52;;;;;;;4.75;2.83;;;13.80;99.90;;;;;;5051266;28;20927;-74
2023/05/20 05:24:17;;;;;;;6.65;3.05;;;13.80;99.90;;;;;;5057924;28;20722;-74
2023/05/20 05:26:43;;;;;;;4.85;2.78;;;13.90;99.90;;;;;;5050963;28;20529;-75
2023/05/20 05:29:08;;;;;;;6.35;3.20;;;14.00;99.90;;;;;;5052654;28;20483;-75
2023/05/20 05:31:34;;;;;;;10.13;4.65;;;13.90;99.90;;;;;;5052287;28;20033;-74
2023/05/20 05:34:00;;;;;;;7.65;4.43;;;13.90;99.90;;;;;;5053895;28;20099;-75
2023/05/20 05:36:25;;;;;;;7.03;3.90;;;13.90;99.90;;;;;;5055763;28;25389;-74
2023/05/20 05:38:51;;;;;;;6.63;3.67;;;13.90;99.90;;;;;;5048707;28;20064;-75
2023/05/20 05:41:17;;;;;;;6.25;3.80;;;14.00;99.90;;;;;;5057813;28;20059;-74
2023/05/20 05:43:43;;;;;;;7.20;4.65;;;14.00;99.90;;;;;;5052075;28;20031;-74
2023/05/20 05:46:08;;;;;;;7.75;4.00;;;14.10;99.90;;;;;;5051715;28;20077;-74
2023/05/20 05:48:35;;;;;;;7.10;3.60;;;14.10;99.90;;;;;;5053361;28;20103;-74
2023/05/20 05:51:01;;;;;;;6.05;4.15;;;14.20;99.90;;;;;;5050184;28;20737;-74
2023/05/20 05:53:27;;;;;;;8.25;4.35;;;14.30;99.90;;;;;;5053070;28;20078;-75
2023/05/20 05:55:52;;;;;;;8.00;4.45;;;14.40;99.90;;;;;;5051508;28;20052;-74
2023/05/20 05:58:18;;;;;;;7.00;4.60;;;14.40;99.90;;;;;;5052899;28;20475;-75
2023/05/20 06:00:44;;;;;;;9.30;5.25;;;14.40;99.90;;;;;;5045658;28;20029;-74
2023/05/20 06:03:09;;;;;;;10.40;5.95;;;14.50;99.90;;;;;;5055435;28;20064;-75
2023/05/20 06:05:35;;;;;;;9.65;6.53;;;14.30;99.90;;;;;;5056120;28;20051;-75
2023/05/20 06:08:01;;;;;;;11.65;8.10;;;14.30;99.90;;;;;;5049139;28;20031;-74
2023/05/20 06:10:27;;;;;;;12.13;7.30;;;14.20;99.90;;;;;;5047097;28;20132;-75
2023/05/20 06:12:52;;;;;;;9.18;6.80;;;14.30;99.90;;;;;;5052989;28;20465;-75
2023/05/20 06:15:18;;;;;;;11.75;7.72;;;14.20;99.90;;;;;;5051442;28;20052;-75
2023/05/20 06:17:44;;;;;;;12.20;8.32;;;14.20;99.90;;;;;;5049028;28;20025;-74
2023/05/20 06:20:10;;;;;;;10.25;7.70;;;14.30;99.90;;;;;;5051783;28;20462;-75
2023/05/20 06:22:35;;;;;;;12.52;8.55;;;14.40;99.90;;;;;;5049073;28;20469;-74
2023/05/20 06:25:01;;;;;;;11.02;8.48;;;14.40;99.90;;;;;;5060620;28;20025;-75
2023/05/20 06:27:27;;;;;;;12.63;8.10;;;14.40;99.90;;;;;;5057836;28;20031;-75
2023/05/20 06:29:53;;;;;;;13.00;8.90;;;14.40;99.90;;;;;;5054473;28;20021;-75
2023/05/20 06:32:18;;;;;;;10.13;7.97;;;14.30;99.90;;;;;;5050735;28;20044;-74
2023/05/20 06:34:44;;;;;;;10.00;7.97;;;14.30;99.90;;;;;;5055656;28;20116;-75
2023/05/20 06:37:10;;;;;;;10.50;7.78;;;14.40;99.90;;;;;;5052136;28;20037;-74
2023/05/20 06:39:36;;;;;;;11.02;8.45;;;14.40;99.90;;;;;;5051887;28;20162;-74
2023/05/20 06:42:02;;;;;;;13.25;8.65;;;14.40;99.90;;;;;;5057980;28;20063;-76
2023/05/20 06:44:28;;;;;;;11.90;8.55;;;14.50;99.90;;;;;;5055647;28;20028;-75
2023/05/20 06:46:54;;;;;;;12.13;8.23;;;14.60;99.90;;;;;;5052699;28;20090;-74
2023/05/20 06:49:19;;;;;;;11.95;8.18;;;14.60;99.90;;;;;;5050963;28;20474;-73
2023/05/20 06:51:45;;;;;;;15.60;7.78;;;14.50;99.90;;;;;;5046289;28;20036;-74
2023/05/20 06:54:11;;;;;;;11.38;7.50;;;14.50;99.90;;;;;;5049467;28;20040;-74
2023/05/20 06:56:36;;;;;;;10.27;7.60;;;14.60;99.90;;;;;;5050431;28;20056;-74
2023/05/20 06:59:02;;;;;;;7.97;6.00;;;14.60;99.90;;;;;;5050398;28;20569;-74
2023/05/20 07:01:28;;;;;;;7.55;5.25;;;14.60;99.90;;;;;;5047701;28;20051;-74
2023/05/20 07:03:53;;;;;;;8.45;5.43;;;14.70;99.90;;;;;;5051521;28;20054;-75
2023/05/20 07:06:19;;;;;;;7.65;5.07;;;14.70;99.90;;;;;;5048082;28;20071;-74
2023/05/20 07:08:45;;;;;;;8.10;5.65;;;14.70;99.90;;;;;;5047797;28;20116;-75
2023/05/20 07:11:10;;;;;;;7.30;4.72;;;14.70;99.90;;;;;;5049715;28;20039;-75
2023/05/20 07:13:36;;;;;;;7.70;4.15;;;14.80;99.90;;;;;;5049354;28;20052;-75
2023/05/20 07:16:02;;;;;;;6.43;4.63;;;15.00;99.90;;;;;;5046340;28;20041;-75
2023/05/20 07:18:28;;;;;;;12.10;8.32;;;15.10;99.90;;;;;;5051180;28;20033;-74
2023/05/20 07:20:55;;;;;;;10.18;7.55;;;15.00;99.90;;;;;;5047220;28;20973;-75
2023/05/20 07:23:22;;;;;;;12.50;9.10;;;14.90;99.90;;;;;;5049458;28;20039;-74
2023/05/20 07:25:48;;;;;;;10.73;8.52;;;14.90;99.90;;;;;;5043952;28;20056;-74
2023/05/20 07:28:16;;;;;;;12.07;8.27;;;14.80;99.90;;;;;;5045831;28;20024;-75
2023/05/20 07:30:45;;;;;;;9.93;6.97;;;14.60;99.90;;;;;;5048433;28;20028;-75
2023/05/20 07:33:10;;;;;;;10.90;7.13;;;14.60;99.90;;;;;;5048620;28;20029;-75
2023/05/20 07:35:36;;;;;;;8.98;6.55;;;14.70;99.90;;;;;;5054149;28;20036;-74
2023/05/20 07:38:02;;;;;;;6.93;4.88;;;14.90;99.90;;;;;;5047005;28;20028;-74
2023/05/20 07:40:27;;;;;;;7.15;4.38;;;15.00;99.90;;;;;;5046455;28;20021;-75
2023/05/20 07:42:53;;;;;;;7.25;4.53;;;15.10;99.90;;;;;;5056753;28;20062;-74
2023/05/20 07:45:19;;;;;;;8.88;6.13;;;15.40;99.90;;;;;;5058882;28;20025;-75
2023/05/20 07:47:45;;;;;;;9.65;7.78;;;15.50;99.90;;;;;;5060241;28;20025;-74
2023/05/20 07:50:11;;;;;;;10.20;6.82;;;15.50;99.90;;;;;;5062191;28;20094;-75
2023/05/20 07:52:36;;;;;;;13.95;7.47;;;15.40;99.90;;;;;;5064049;28;20034;-78
2023/05/20 07:55:02;;;;;;;8.68;6.85;;;15.50;99.90;;;;;;5065303;28;20651;-75
2023/05/20 07:57:28;;;;;;;7.75;6.15;;;15.70;99.90;;;;;;5062357;28;20046;-75
2023/05/20 07:59:54;;;;;;;9.13;5.47;;;15.80;99.90;;;;;;5065761;28;20029;-75
2023/05/20 08:02:20;;;;;;;9.38;5.07;;;15.80;99.90;;;;;;5061047;28;20033;-75
2023/05/20 08:04:45;;;;;;;9.57;6.88;;;15.80;99.90;;;;;;5063934;28;20032;-74
2023/05/20 08:07:11;;;;;;;11.02;8.27;;;16.00;99.90;;;;;;5058737;28;20036;-76
2023/05/20 08:09:37;;;;;;;9.65;7.40;;;15.90;99.90;;;;;;5061049;28;20032;-75
2023/05/20 08:12:02;;;;;;;6.93;5.07;;;15.80;99.90;;;;;;5063834;28;20024;-75
2023/05/20 08:14:28;;;;;;;9.23;4.03;;;15.60;99.90;;;;;;5064555;28;20180;-75
2023/05/20 08:16:54;;;;;;;6.82;4.47;;;15.60;99.90;;;;;;5065871;28;20062;-76
2023/05/20 08:19:19;;;;;;;6.15;3.63;;;15.70;99.90;;;;;;5062510;28;20094;-76
2023/05/20 08:21:46;;;;;;;8.60;4.40;;;15.60;99.90;;;;;;5060894;28;20079;-75
2023/05/20 08:24:11;;;;;;;5.78;3.90;;;15.60;99.90;;;;;;5061804;28;20082;-75
2023/05/20 08:26:37;;;;;;;6.60;4.90;;;15.50;99.90;;;;;;5060033;28;20040;-75
2023/05/20 08:29:02;;;;;;;7.90;5.35;;;15.40;99.90;;;;;;5061659;28;20474;-75
2023/05/20 08:31:28;;;;;;;7.63;5.68;;;15.40;99.90;;;;;;5064895;28;20024;-75
2023/05/20 08:33:54;;;;;;;7.75;5.22;;;15.40;99.90;;;;;;5064452;28;20054;-75
2023/05/20 08:36:19;;;;;;;7.35;4.35;;;15.60;99.90;;;;;;5063772;28;20148;-75
2023/05/20 08:38:45;;;;;;;7.05;5.18;;;15.70;99.90;;;;;;5066536;28;20027;-75
2023/05/20 08:41:11;;;;;;;11.43;6.00;;;15.80;99.90;;;;;;5065653;28;20024;-75
2023/05/20 08:43:36;;;;;;;6.63;4.28;;;15.80;99.90;;;;;;5066437;28;20024;-75
2023/05/20 08:46:05;;;;;;;7.25;4.72;;;15.90;99.90;;;;;;5063720;28;20591;-75
2023/05/20 08:48:32;;;;;;;5.97;3.67;;;16.00;99.90;;;;;;5066157;28;20081;-75
2023/05/20 08:50:58;;;;;;;6.70;3.03;;;16.10;99.90;;;;;;5064673;28;20028;-75
2023/05/20 08:53:25;;;;;;;6.95;4.00;;;16.10;99.90;;;;;;5066627;28;20027;-73
2023/05/20 08:55:59;;;;;;;5.18;2.88;;;16.20;99.90;;;;;;5066103;28;20386;-75
2023/05/20 08:58:27;;;;;;;5.38;2.45;;;16.30;99.90;;;;;;5067803;28;20110;-77
2023/05/20 09:00:52;;;;;;;5.95;3.45;;;16.20;99.90;;;;;;5067919;28;20812;-75
2023/05/20 09:03:22;;;;;;;5.80;2.90;;;16.30;99.90;;;;;;5068117;28;20081;-75
2023/05/20 09:05:48;;;;;;;4.68;2.75;;;16.50;99.90;;;;;;5065755;28;20047;-74
2023/05/20 09:08:14;;;;;;;5.07;3.10;;;16.70;99.90;;;;;;5063880;28;20501;-76
2023/05/20 09:10:40;;;;;;;5.45;3.30;;;16.80;99.90;;;;;;5056581;28;20025;-74
2023/05/20 09:13:09;;;;;;;7.88;4.97;;;16.80;99.90;;;;;;5066093;28;20095;-74
2023/05/20 09:15:36;;;;;;;6.10;5.03;;;16.70;99.90;;;;;;5065759;28;20044;-74
2023/05/20 09:18:03;;;;;;;9.35;7.65;;;16.60;99.90;;;;;;5066492;28;20482;-75
2023/05/20 09:20:31;;;;;;;10.77;7.43;;;16.60;99.90;;;;;;5066571;28;20064;-75
2023/05/20 09:23:05;;;;;;;11.10;7.13;;;16.30;99.90;;;;;;5057387;28;20649;-75
2023/05/20 09:25:31;;;;;;;10.15;6.70;;;16.00;99.90;;;;;;5065660;28;20033;-76
2023/05/20 09:27:57;;;;;;;10.07;6.57;;;16.00;99.90;;;;;;5063374;28;20533;-74
2023/05/20 09:30:23;;;;;;;10.93;6.97;;;16.00;99.90;;;;;;5067038;28;20025;-75
2023/05/20 09:32:56;;;;;;;10.82;6.78;;;16.10;99.90;;;;;;5065283;28;20035;-74
2023/05/20 09:35:23;;;;;;;13.20;7.07;;;16.10;99.90;;;;;;5065756;28;20028;-76
2023/05/20 09:37:55;;;;;;;11.48;7.47;;;16.20;99.90;;;;;;5065195;28;20029;-74
2023/05/20 09:40:26;;;;;;;11.98;7.38;;;16.30;99.90;;;;;;5054328;28;20033;-75
2023/05/20 09:43:03;;;;;;;11.18;6.82;;;16.10;99.90;;;;;;5046916;28;20032;-75
2023/05/20 09:45:29;;;;;;;11.60;6.78;;;16.00;99.90;;;;;;5066846;28;20067;-76
2023/05/20 09:47:56;;;;;;;10.70;7.45;;;16.00;99.90;;;;;;5065181;28;20028;-75
2023/05/20 09:50:23;;;;;;;10.02;5.57;;;16.20;99.90;;;;;;5065783;28;20039;-74
2023/05/20 09:52:50;;;;;;;7.55;4.63;;;16.10;99.90;;;;;;5065068;28;20064;-78
2023/05/20 09:55:18;;;;;;;9.45;4.28;;;16.20;99.90;;;;;;5066162;28;20131;-72
2023/05/20 09:57:44;;;;;;;7.28;4.03;;;16.30;99.90;;;;;;5065386;28;20086;-78
2023/05/20 10:00:16;;;;;;;7.93;5.22;;;16.80;99.90;;;;;;5067335;28;20381;-76
2023/05/20 10:02:46;;;;;;;9.55;5.70;;;16.50;99.90;;;;;;5069515;28;20082;-77
2023/05/20 10:05:31;;;;;;;10.57;5.40;;;16.40;99.90;;;;;;5066196;28;20036;-76
2023/05/20 10:08:31;;;;;;;6.97;4.40;;;16.40;99.90;;;;;;5052989;28;20029;-77
2023/05/20 10:11:23;;;;;;;8.57;4.95;;;16.30;99.90;;;;;;5064786;28;20028;-77
2023/05/20 10:14:01;;;;;;;7.15;5.03;;;16.30;99.90;;;;;;5065399;28;20493;-76
2023/05/20 10:16:48;;;;;;;6.95;5.85;;;16.30;99.90;;;;;;5053374;28;20077;-76
2023/05/20 10:19:33;;;;;;;6.28;4.22;;;16.30;99.90;;;;;;5060935;28;20063;-77
2023/05/20 10:22:00;;;;;;;7.47;3.88;;;16.30;99.90;;;;;;5067407;28;20082;-77
2023/05/20 10:24:33;;;;;;;6.32;3.72;;;16.40;99.90;;;;;;5058369;28;20678;-79
2023/05/20 10:27:02;;;;;;;10.15;3.90;;;16.30;99.90;;;;;;5068062;28;20032;-76
2023/05/20 10:29:28;;;;;;;7.60;4.80;;;16.50;99.90;;;;;;5068800;28;20028;-77
2023/05/20 10:31:54;;;;;;;7.65;5.15;;;16.30;99.90;;;;;;5068287;28;20041;-78
2023/05/20 10:34:22;;;;;;;7.43;5.20;;;16.20;99.90;;;;;;5060417;28;20518;-78
2023/05/20 10:36:53;;;;;;;7.35;5.18;;;16.20;99.90;;;;;;5053990;28;20048;-78
2023/05/20 10:39:28;;;;;;;8.18;5.43;;;16.20;99.90;;;;;;5070467;28;20032;-77
2023/05/20 10:42:08;;;;;;;9.18;5.20;;;16.30;99.90;;;;;;5069854;28;20025;-77
2023/05/20 10:44:44;;;;;;;7.63;4.88;;;16.50;99.90;;;;;;5071209;28;20054;-77
2023/05/20 10:47:10;;;;;;;7.38;4.78;;;16.60;99.90;;;;;;5069343;28;20063;-77
2023/05/20 10:49:43;;;;;;;8.57;5.90;;;16.70;99.90;;;;;;5070642;28;20117;-78
2023/05/20 10:52:09;;;;;;;10.88;6.20;;;16.80;99.90;;;;;;5052214;28;20037;-77
2023/05/20 10:54:36;;;;;;;9.32;5.78;;;17.00;99.90;;;;;;5069249;28;20036;-77
2023/05/20 10:57:08;;;;;;;9.52;5.35;;;17.00;99.90;;;;;;5070082;28;20064;-77
2023/05/20 10:59:35;;;;;;;8.40;4.95;;;17.00;99.90;;;;;;5068616;28;20032;-78
2023/05/20 11:02:01;;;;;;;8.27;4.78;;;17.00;99.90;;;;;;5068393;28;20025;-77
2023/05/20 11:04:29;;;;;;;7.03;5.20;;;17.10;99.90;;;;;;5069991;28;20025;-78
2023/05/20 11:06:55;;;;;;;7.43;5.03;;;17.10;99.90;;;;;;5069181;28;20048;-77
2023/05/20 11:09:21;;;;;;;10.38;4.30;;;16.90;99.90;;;;;;5069041;28;20025;-77
2023/05/20 11:11:48;;;;;;;6.40;4.28;;;17.00;99.90;;;;;;5065032;28;20036;-77
2023/05/20 11:14:15;;;;;;;5.47;3.95;;;17.10;99.90;;;;;;5059457;28;20056;-77
2023/05/20 11:16:41;;;;;;;6.05;4.38;;;17.00;99.90;;;;;;5068012;28;20036;-77
2023/05/20 11:19:08;;;;;;;9.35;5.68;;;17.00;99.90;;;;;;5069821;28;20614;-78
2023/05/20 11:21:33;;;;;;;17.38;10.70;;;17.00;99.90;;;;;;5067102;28;20037;-78
2023/05/20 11:23:59;;;;;;;8.15;5.97;;;16.90;99.90;;;;;;5069672;28;20366;-77
2023/05/20 11:26:25;;;;;;;9.48;5.25;;;16.80;99.90;;;;;;5068075;28;20067;-79
2023/05/20 11:28:51;;;;;;;8.43;5.65;;;16.70;99.90;;;;;;5068991;28;20028;-78
2023/05/20 11:31:17;;;;;;;7.90;4.63;;;16.50;99.90;;;;;;5067469;28;20048;-78
2023/05/20 11:33:43;;;;;;;12.60;5.93;;;16.40;99.90;;;;;;5069021;28;20032;-78
2023/05/20 11:36:10;;;;;;;7.65;5.63;;;16.50;99.90;;;;;;5068902;28;20054;-78
2023/05/20 11:38:35;;;;;;;15.48;7.00;;;16.60;99.90;;;;;;5068348;28;20037;-77
2023/05/20 11:41:01;;;;;;;11.35;6.00;;;16.70;99.90;;;;;;5069176;28;20028;-77
2023/05/20 11:43:26;;;;;;;8.68;6.57;;;16.80;99.90;;;;;;5068873;28;20111;-77
2023/05/20 11:45:59;;;;;;;8.75;6.03;;;16.90;99.90;;;;;;5069427;28;20017;-78
2023/05/20 11:48:25;;;;;;;7.85;5.07;;;16.70;99.90;;;;;;5068915;28;20512;-77
2023/05/20 11:50:53;;;;;;;9.93;5.57;;;16.60;99.90;;;;;;5068308;28;20025;-78
2023/05/20 11:53:21;;;;;;;8.93;5.38;;;16.60;99.90;;;;;;5068097;28;20094;-78
2023/05/20 11:55:57;;;;;;;11.30;5.85;;;16.60;99.90;;;;;;5068891;28;20491;-78
2023/05/20 11:58:28;;;;;;;8.90;5.45;;;16.60;99.90;;;;;;5068599;28;20028;-77
2023/05/20 12:00:54;;;;;;;9.57;5.38;;;16.60;99.90;;;;;;5067741;28;20036;-77
2023/05/20 12:03:20;;;;;;;9.15;5.18;;;16.50;99.90;;;;;;5067824;28;20036;-77
2023/05/20 12:05:47;;;;;;;10.13;6.03;;;16.50;99.90;;;;;;5068206;28;20481;-78
2023/05/20 12:08:13;;;;;;;8.68;5.03;;;16.60;99.90;;;;;;5068600;28;20021;-78
2023/05/20 12:10:38;;;;;;;9.68;5.85;;;16.60;99.90;;;;;;5068164;28;20055;-78
2023/05/20 12:13:07;;;;;;;7.70;5.55;;;16.70;99.90;;;;;;5056242;28;20025;-78
2023/05/20 12:15:35;;;;;;;9.30;5.80;;;16.60;99.90;;;;;;5062288;28;20530;-78
2023/05/20 12:18:02;;;;;;;10.80;6.63;;;16.50;99.90;;;;;;5067793;28;20390;-77
2023/05/20 12:20:29;;;;;;;8.70;6.10;;;16.60;99.90;;;;;;5067724;28;20036;-78
2023/05/20 12:22:54;;;;;;;9.80;7.05;;;16.80;99.90;;;;;;5067144;28;20111;-78
2023/05/20 12:25:20;;;;;;;10.02;6.38;;;16.80;99.90;;;;;;5067950;28;20104;-78
2023/05/20 12:27:47;;;;;;;13.02;6.18;;;16.70;99.90;;;;;;5066916;28;20436;-78
2023/05/20 12:30:17;;;;;;;8.07;5.57;;;16.70;99.90;;;;;;5064244;28;20063;-78
2023/05/20 12:32:44;;;;;;;10.20;5.80;;;16.60;99.90;;;;;;5050215;28;20056;-77
2023/05/20 12:35:10;;;;;;;8.80;5.95;;;16.50;99.90;;;;;;5057114;28;20012;-80
2023/05/20 12:37:40;;;;;;;10.30;5.80;;;16.40;99.90;;;;;;5067586;28;20390;-78
2023/05/20 12:40:07;;;;;;;8.82;6.03;;;16.40;99.90;;;;;;5068769;28;20081;-78
2023/05/20 12:42:36;;;;;;;12.35;8.20;;;16.40;99.90;;;;;;5068222;28;20946;-79
2023/05/20 12:45:03;;;;;;;11.07;6.28;;;16.50;99.90;;;;;;5067188;28;20035;-78